Time;durP1;ratioP1;P1;durP2;ratioP2;P2;SDS_P1;SDS_P2;PMS_P1;PMS_P2;Temp;Humidity;BMP_temperature;BMP_pressure;BME280_temperature;BME280_humidity;BME280_pressure;Samples;Min_cycle;Max_cycle;Signal;HPM_P1;HPM_P2
2022/07/19 00:00:08;;;;;;;7.05;3.97;;;21.80;73.40;;;;;;5022922;28;20124;-92
2022/07/19 00:02:35;;;;;;;4.35;3.20;;;21.80;73.70;;;;;;5041102;28;20037;-92
2022/07/19 00:05:00;;;;;;;7.30;3.40;;;21.70;73.90;;;;;;5049116;28;20018;-92
2022/07/19 00:07:26;;;;;;;8.18;3.20;;;21.70;74.20;;;;;;5045087;28;20037;-90
2022/07/19 00:09:52;;;;;;;6.25;3.50;;;21.60;74.30;;;;;;5057565;28;20033;-92
2022/07/19 00:12:18;;;;;;;5.18;3.20;;;21.50;74.40;;;;;;5058875;28;20033;-90
2022/07/19 00:14:43;;;;;;;5.88;3.10;;;21.40;74.70;;;;;;5059538;28;20497;-89
2022/07/19 00:17:09;;;;;;;4.03;3.10;;;21.40;75.00;;;;;;5055162;28;20060;-92
2022/07/19 00:19:35;;;;;;;4.55;3.20;;;21.40;75.30;;;;;;5038229;28;20026;-93
2022/07/19 00:22:00;;;;;;;6.60;3.63;;;21.30;75.60;;;;;;5038683;28;20425;-93
2022/07/19 00:24:26;;;;;;;11.13;3.28;;;21.30;75.80;;;;;;5037630;28;20026;-93
2022/07/19 00:26:52;;;;;;;5.07;3.20;;;21.30;76.00;;;;;;5038726;28;20026;-94
2022/07/19 00:29:17;;;;;;;6.43;3.20;;;21.20;76.30;;;;;;5039060;28;20064;-93
2022/07/19 00:31:43;;;;;;;8.45;3.28;;;21.20;76.70;;;;;;5037678;28;20112;-94
2022/07/19 00:34:09;;;;;;;7.68;3.55;;;21.20;77.10;;;;;;5020838;28;20029;-94
2022/07/19 00:36:34;;;;;;;4.18;3.20;;;21.10;77.30;;;;;;5037272;28;20021;-93
2022/07/19 00:39:00;;;;;;;5.97;3.83;;;21.10;77.60;;;;;;5037513;28;20029;-93
2022/07/19 00:41:26;;;;;;;5.07;3.35;;;21.10;77.80;;;;;;5036904;28;20034;-94
2022/07/19 00:43:52;;;;;;;5.22;3.30;;;21.00;78.20;;;;;;5038375;28;20390;-93
2022/07/19 00:46:21;;;;;;;6.20;3.50;;;21.00;78.60;;;;;;5037116;28;20031;-92
2022/07/19 00:48:48;;;;;;;4.55;3.05;;;20.90;78.90;;;;;;5038104;28;20052;-94
2022/07/19 00:51:15;;;;;;;7.38;3.60;;;20.90;79.20;;;;;;5036908;28;20025;-93
2022/07/19 00:53:42;;;;;;;6.72;3.15;;;20.80;79.60;;;;;;5036538;28;20039;-94
2022/07/19 00:56:09;;;;;;;5.78;3.20;;;20.80;80.00;;;;;;5019970;28;20029;-93
2022/07/19 00:58:38;;;;;;;8.45;3.35;;;20.70;80.40;;;;;;5035915;28;20246;-93
2022/07/19 01:01:05;;;;;;;5.50;3.20;;;20.70;80.90;;;;;;5021034;28;20040;-93
2022/07/19 01:03:35;;;;;;;5.65;3.55;;;20.60;81.30;;;;;;5043695;28;20033;-92
2022/07/19 01:06:01;;;;;;;12.73;3.67;;;20.60;82.00;;;;;;5044971;28;20102;-94
2022/07/19 01:08:26;;;;;;;6.78;3.30;;;20.50;82.60;;;;;;5035566;28;20479;-93
2022/07/19 01:10:52;;;;;;;5.45;3.28;;;20.50;83.20;;;;;;5036053;28;20033;-93
2022/07/19 01:13:18;;;;;;;7.35;3.83;;;20.50;83.60;;;;;;5036274;28;20048;-91
2022/07/19 01:15:44;;;;;;;6.68;4.07;;;20.40;84.00;;;;;;5037911;28;20017;-92
2022/07/19 01:18:10;;;;;;;5.45;3.22;;;20.40;84.40;;;;;;5047263;28;20083;-89
2022/07/19 01:20:36;;;;;;;5.38;3.55;;;20.40;84.80;;;;;;5028505;28;20036;-92
2022/07/19 01:23:02;;;;;;;6.38;4.10;;;20.30;85.30;;;;;;5037561;28;20033;-92
2022/07/19 01:25:31;;;;;;;6.00;3.13;;;20.30;85.90;;;;;;5036589;28;20021;-91
2022/07/19 01:27:57;;;;;;;6.35;3.42;;;20.20;86.30;;;;;;5035863;28;20021;-93
2022/07/19 01:30:25;;;;;;;7.18;3.70;;;20.20;86.80;;;;;;5036054;28;20022;-91
2022/07/19 01:32:54;;;;;;;7.78;3.72;;;20.10;87.20;;;;;;5036902;28;20140;-90
2022/07/19 01:35:20;;;;;;;5.70;3.30;;;20.10;87.60;;;;;;5050609;28;20013;-91
2022/07/19 01:37:47;;;;;;;5.43;3.65;;;20.00;88.20;;;;;;5039508;28;20072;-93
2022/07/19 01:40:15;;;;;;;8.65;3.92;;;20.00;88.70;;;;;;5035009;28;20026;-93
2022/07/19 01:42:41;;;;;;;5.07;3.58;;;19.90;89.10;;;;;;5034983;28;20475;-93
2022/07/19 01:45:09;;;;;;;6.38;3.78;;;19.90;89.60;;;;;;5035453;28;20371;-93
2022/07/19 01:47:35;;;;;;;6.38;3.90;;;19.80;90.00;;;;;;5034488;28;20087;-93
2022/07/19 01:50:01;;;;;;;7.20;3.70;;;19.70;90.30;;;;;;5035580;28;20022;-93
2022/07/19 01:52:27;;;;;;;6.63;3.42;;;19.70;90.50;;;;;;5039996;28;20116;-90
2022/07/19 01:54:52;;;;;;;8.88;3.70;;;19.70;90.70;;;;;;5054627;28;20105;-89
2022/07/19 01:57:18;;;;;;;5.22;3.65;;;19.70;90.80;;;;;;5046170;28;20107;-92
2022/07/19 01:59:44;;;;;;;9.73;3.63;;;19.60;90.90;;;;;;5034620;28;20037;-92
2022/07/19 02:02:09;;;;;;;7.38;3.63;;;19.60;91.10;;;;;;5034263;28;20508;-92
2022/07/19 02:04:35;;;;;;;5.70;3.83;;;19.60;91.20;;;;;;5035537;28;20455;-93
2022/07/19 02:07:01;;;;;;;5.45;3.90;;;19.60;91.40;;;;;;5033994;28;20075;-92
2022/07/19 02:09:27;;;;;;;5.95;3.70;;;19.60;91.50;;;;;;5034542;28;20059;-92
2022/07/19 02:11:52;;;;;;;4.30;3.63;;;19.50;92.00;;;;;;5033972;28;20080;-92
2022/07/19 02:14:18;;;;;;;8.10;3.35;;;19.40;91.90;;;;;;5035155;28;20540;-92
2022/07/19 02:16:44;;;;;;;6.38;3.75;;;19.40;92.10;;;;;;5033885;28;20033;-92
2022/07/19 02:19:10;;;;;;;12.23;4.03;;;19.30;92.30;;;;;;5035268;28;20029;-93
2022/07/19 02:21:37;;;;;;;7.28;3.50;;;19.30;92.50;;;;;;5033755;28;20034;-92
2022/07/19 02:24:04;;;;;;;8.35;3.72;;;19.30;92.70;;;;;;5035608;28;20022;-92
2022/07/19 02:26:30;;;;;;;8.20;3.60;;;19.20;92.80;;;;;;5038186;28;20485;-92
2022/07/19 02:28:56;;;;;;;5.93;3.97;;;19.20;93.00;;;;;;5038405;28;20021;-91
2022/07/19 02:31:23;;;;;;;6.22;3.83;;;19.20;93.20;;;;;;5044282;28;20036;-90
2022/07/19 02:33:48;;;;;;;5.10;3.55;;;19.10;93.40;;;;;;5055828;28;20017;-92
2022/07/19 02:36:14;;;;;;;7.22;4.03;;;19.10;93.90;;;;;;5056592;28;20029;-89
2022/07/19 02:38:40;;;;;;;8.52;4.57;;;19.10;93.70;;;;;;5051441;28;20026;-91
2022/07/19 02:41:06;;;;;;;8.77;3.80;;;19.10;93.90;;;;;;5049150;28;20029;-90
2022/07/19 02:43:32;;;;;;;7.50;3.70;;;19.10;94.00;;;;;;5048049;28;20040;-92
2022/07/19 02:45:57;;;;;;;6.93;3.80;;;19.00;94.20;;;;;;5044880;28;20124;-92
2022/07/19 02:48:23;;;;;;;7.32;4.20;;;19.00;94.40;;;;;;5045314;28;20029;-91
2022/07/19 02:50:49;;;;;;;8.48;3.90;;;19.00;94.60;;;;;;5039475;28;20428;-92
2022/07/19 02:53:14;;;;;;;6.93;4.35;;;19.00;94.80;;;;;;5021714;28;20022;-92
2022/07/19 02:55:40;;;;;;;9.43;4.25;;;18.90;95.00;;;;;;5038319;28;20022;-93
2022/07/19 02:58:06;;;;;;;6.60;3.95;;;18.90;95.20;;;;;;5021409;28;20025;-90
2022/07/19 03:00:32;;;;;;;8.00;4.22;;;18.90;95.50;;;;;;5038631;28;20033;-92
2022/07/19 03:05:43;;;;;;;7.07;4.40;;;18.80;95.90;;;;;;5051695;28;20037;-92
2022/07/19 03:08:09;;;;;;;7.93;4.18;;;18.80;96.20;;;;;;5051329;28;20064;-92
2022/07/19 03:10:35;;;;;;;7.00;4.38;;;18.70;96.50;;;;;;5038732;28;20462;-92
2022/07/19 03:13:00;;;;;;;10.20;4.45;;;18.70;96.70;;;;;;5039189;28;20029;-92
2022/07/19 03:15:26;;;;;;;9.38;4.38;;;18.60;97.00;;;;;;5020605;28;20026;-91
2022/07/19 03:17:52;;;;;;;6.78;4.25;;;18.60;97.20;;;;;;5036784;28;20031;-92
2022/07/19 03:20:17;;;;;;;8.50;4.18;;;18.50;97.80;;;;;;5038220;28;20055;-93
2022/07/19 03:22:43;;;;;;;20.88;4.57;;;18.50;97.80;;;;;;5037086;28;20037;-91
2022/07/19 03:25:09;;;;;;;8.55;4.65;;;18.50;98.10;;;;;;5020370;28;20029;-93
2022/07/19 03:27:35;;;;;;;10.25;4.47;;;18.50;98.40;;;;;;5036979;28;20029;-92
2022/07/19 03:30:01;;;;;;;7.28;4.40;;;18.40;98.70;;;;;;5037023;28;20021;-92
2022/07/19 03:32:27;;;;;;;7.45;3.90;;;18.40;99.00;;;;;;5036990;28;20029;-91
2022/07/19 03:34:52;;;;;;;6.93;4.28;;;18.30;99.30;;;;;;5037109;28;20037;-91
2022/07/19 03:37:18;;;;;;;8.32;4.78;;;18.30;99.60;;;;;;5035761;28;20021;-91
2022/07/19 03:39:44;;;;;;;9.25;4.85;;;18.30;99.80;;;;;;5036366;28;20030;-90
2022/07/19 03:42:09;;;;;;;5.47;4.13;;;18.30;99.90;;;;;;5036011;28;20106;-93
2022/07/19 03:44:35;;;;;;;10.45;4.70;;;18.20;99.90;;;;;;5019943;28;20029;-92
2022/07/19 03:47:01;;;;;;;10.02;4.70;;;18.20;99.90;;;;;;5037342;28;20063;-92
2022/07/19 03:49:26;;;;;;;10.38;4.97;;;18.20;99.90;;;;;;5019760;28;20037;-92
2022/07/19 03:51:52;;;;;;;8.95;5.07;;;18.20;99.90;;;;;;5037152;28;20429;-93
2022/07/19 03:54:18;;;;;;;9.45;4.57;;;18.20;99.90;;;;;;5036639;28;20121;-91
2022/07/19 03:56:44;;;;;;;5.75;4.05;;;18.20;99.90;;;;;;5035977;28;20064;-91
2022/07/19 03:59:10;;;;;;;11.98;4.05;;;18.10;99.90;;;;;;5037083;28;20441;-92
2022/07/19 04:01:37;;;;;;;8.20;4.35;;;18.10;99.90;;;;;;5036873;28;20041;-92
2022/07/19 04:04:03;;;;;;;7.88;4.70;;;18.10;99.90;;;;;;5036871;28;20032;-94
2022/07/19 04:06:29;;;;;;;7.88;4.10;;;18.00;99.90;;;;;;5019530;28;20117;-92
2022/07/19 04:08:56;;;;;;;6.95;4.32;;;18.00;99.90;;;;;;5035444;28;20117;-94
2022/07/19 04:11:21;;;;;;;5.68;4.25;;;18.00;99.90;;;;;;5040430;28;20033;-92
2022/07/19 04:13:47;;;;;;;6.10;4.30;;;18.00;99.90;;;;;;5036417;28;20026;-92
2022/07/19 04:16:13;;;;;;;10.82;4.35;;;18.00;99.90;;;;;;5037256;28;20478;-90
2022/07/19 04:18:38;;;;;;;8.68;4.60;;;18.00;99.90;;;;;;5035313;28;20025;-91
2022/07/19 04:21:05;;;;;;;6.28;4.07;;;18.00;99.90;;;;;;5035703;28;20036;-91
2022/07/19 04:23:31;;;;;;;7.47;3.80;;;18.00;99.90;;;;;;5036789;28;20029;-91
2022/07/19 04:25:56;;;;;;;8.75;4.53;;;18.10;99.90;;;;;;5035289;28;20399;-91
2022/07/19 04:28:22;;;;;;;9.45;4.25;;;18.00;99.90;;;;;;5040949;28;20029;-90
2022/07/19 04:30:48;;;;;;;7.07;4.60;;;18.10;99.90;;;;;;5043598;28;20029;-91
2022/07/19 04:33:16;;;;;;;7.10;5.03;;;18.00;99.90;;;;;;5020694;28;20497;-91
2022/07/19 04:35:42;;;;;;;11.23;4.78;;;18.00;99.90;;;;;;5036324;28;20029;-91
2022/07/19 04:38:08;;;;;;;8.50;4.75;;;18.00;99.90;;;;;;5037077;28;20080;-91
2022/07/19 04:40:34;;;;;;;8.48;4.15;;;17.90;99.90;;;;;;5040856;28;20026;-91
2022/07/19 04:42:59;;;;;;;9.13;4.65;;;17.90;99.90;;;;;;5046628;28;20072;-90
2022/07/19 04:45:25;;;;;;;9.98;4.63;;;17.80;99.90;;;;;;5039337;28;20024;-90
2022/07/19 04:47:51;;;;;;;7.93;4.70;;;17.80;99.90;;;;;;5041063;28;20026;-92
2022/07/19 04:50:17;;;;;;;9.95;4.47;;;17.80;99.90;;;;;;5038293;28;20044;-92
2022/07/19 04:52:42;;;;;;;9.55;4.60;;;17.80;99.90;;;;;;5034875;28;20026;-91
2022/07/19 04:55:09;;;;;;;6.63;4.80;;;17.80;99.90;;;;;;5036138;28;20075;-90
2022/07/19 04:57:34;;;;;;;10.45;4.60;;;17.80;99.90;;;;;;5035006;28;20393;-90
2022/07/19 05:00:00;;;;;;;6.25;4.43;;;17.80;99.90;;;;;;5034494;28;20049;-91
2022/07/19 05:02:26;;;;;;;9.93;4.35;;;17.80;99.90;;;;;;5034778;28;20041;-91
2022/07/19 05:04:51;;;;;;;8.30;4.47;;;17.80;99.90;;;;;;5037154;28;20021;-91
2022/07/19 05:07:17;;;;;;;6.63;4.45;;;17.80;99.90;;;;;;5031207;28;20554;-91
2022/07/19 05:09:43;;;;;;;11.52;4.80;;;17.80;99.90;;;;;;5052219;28;20029;-91
2022/07/19 05:12:10;;;;;;;8.45;4.25;;;17.90;99.90;;;;;;5024405;28;20029;-92
2022/07/19 05:14:36;;;;;;;8.02;4.95;;;17.90;99.90;;;;;;5034745;28;20390;-92
2022/07/19 05:17:02;;;;;;;7.68;4.55;;;17.90;99.90;;;;;;5022018;28;20021;-91
2022/07/19 05:19:28;;;;;;;9.00;4.78;;;17.90;99.90;;;;;;5038833;28;20035;-90
2022/07/19 05:21:54;;;;;;;14.10;5.00;;;17.90;99.90;;;;;;5035227;28;20038;-91
2022/07/19 05:24:20;;;;;;;11.50;4.97;;;17.90;99.90;;;;;;5039588;28;20033;-91
2022/07/19 05:26:45;;;;;;;10.73;4.25;;;18.00;99.90;;;;;;5018653;28;20471;-91
2022/07/19 05:29:11;;;;;;;7.50;3.88;;;18.00;99.90;;;;;;5035336;28;20053;-92
2022/07/19 05:31:37;;;;;;;8.25;4.28;;;18.00;99.90;;;;;;5037059;28;20064;-90
2022/07/19 05:34:04;;;;;;;8.15;4.30;;;18.10;99.90;;;;;;5040000;28;20029;-93
2022/07/19 05:36:30;;;;;;;8.15;4.53;;;18.10;99.90;;;;;;5037440;28;20030;-93
2022/07/19 05:38:56;;;;;;;11.88;4.90;;;18.10;99.90;;;;;;5036318;28;20360;-91
2022/07/19 05:41:22;;;;;;;8.15;4.70;;;18.10;99.90;;;;;;5022093;28;20098;-94
2022/07/19 05:43:49;;;;;;;14.07;4.70;;;18.10;99.90;;;;;;5036519;28;20052;-93
2022/07/19 05:46:16;;;;;;;13.48;5.00;;;18.10;99.90;;;;;;5037833;28;20029;-93
2022/07/19 05:48:41;;;;;;;8.07;5.13;;;18.10;99.90;;;;;;5037232;28;20065;-91
2022/07/19 05:51:07;;;;;;;6.40;4.13;;;18.20;99.90;;;;;;5035594;28;20030;-93
2022/07/19 05:53:36;;;;;;;8.55;5.00;;;18.20;99.90;;;;;;5034531;28;20037;-93
2022/07/19 05:56:02;;;;;;;6.35;4.18;;;18.20;99.90;;;;;;5034679;28;20032;-93
2022/07/19 05:58:28;;;;;;;13.95;5.30;;;18.30;99.90;;;;;;5035440;28;20026;-93
2022/07/19 06:03:38;;;;;;;13.98;4.85;;;18.40;99.90;;;;;;5040225;28;20051;-94
2022/07/19 06:06:04;;;;;;;8.05;4.20;;;18.40;99.90;;;;;;5038247;28;20029;-94
2022/07/19 06:08:29;;;;;;;9.55;4.57;;;18.50;99.90;;;;;;5038259;28;20049;-92
2022/07/19 06:10:55;;;;;;;8.32;4.40;;;18.50;99.90;;;;;;5038161;28;20029;-92
2022/07/19 06:13:21;;;;;;;12.63;4.63;;;18.50;99.90;;;;;;5038189;28;20029;-91
2022/07/19 06:19:11;;;;;;;11.30;4.47;;;18.70;99.90;;;;;;5039559;28;20029;-90
2022/07/19 06:21:37;;;;;;;8.30;3.72;;;18.80;99.90;;;;;;5020941;28;20029;-91
2022/07/19 06:24:03;;;;;;;9.45;3.83;;;19.00;99.90;;;;;;5039074;28;20463;-92
2022/07/19 06:26:29;;;;;;;6.85;3.75;;;19.10;99.90;;;;;;5048568;28;20021;-90
2022/07/19 06:32:24;;;;;;;7.53;4.15;;;19.40;99.90;;;;;;5060312;28;20043;-90
2022/07/19 06:34:49;;;;;;;10.10;3.60;;;19.50;99.90;;;;;;5057884;28;20014;-90
2022/07/19 06:37:15;;;;;;;5.43;3.60;;;19.70;99.90;;;;;;5032689;28;20053;-91
2022/07/19 06:39:41;;;;;;;7.97;3.92;;;19.90;99.90;;;;;;5050029;28;20416;-91
2022/07/19 06:42:06;;;;;;;7.80;4.00;;;19.90;99.90;;;;;;5047178;28;20509;-89
2022/07/19 06:44:32;;;;;;;7.63;3.60;;;20.00;99.90;;;;;;5046455;28;20029;-90
2022/07/19 06:46:58;;;;;;;9.43;3.80;;;20.10;99.90;;;;;;5045199;28;20039;-90
2022/07/19 06:49:24;;;;;;;6.93;3.80;;;20.10;99.90;;;;;;5039659;28;20021;-94
2022/07/19 06:51:49;;;;;;;8.50;3.85;;;20.30;99.90;;;;;;5041622;28;20030;-89
2022/07/19 06:57:44;;;;;;;9.48;3.88;;;20.60;99.90;;;;;;5041177;28;20080;-92
2022/07/19 07:00:11;;;;;;;7.40;4.22;;;20.70;99.90;;;;;;5022993;28;20486;-91
2022/07/19 07:02:37;;;;;;;8.13;4.03;;;20.80;99.90;;;;;;5039973;28;20029;-90
2022/07/19 07:05:04;;;;;;;6.05;3.75;;;20.80;99.60;;;;;;5039216;28;20128;-90
2022/07/19 07:07:30;;;;;;;7.90;4.03;;;20.90;99.70;;;;;;5043939;28;20079;-88
2022/07/19 07:09:56;;;;;;;5.07;3.80;;;21.00;99.70;;;;;;5026969;28;20064;-89
2022/07/19 07:12:22;;;;;;;5.65;3.70;;;21.10;99.60;;;;;;5021033;28;20033;-90
2022/07/19 07:14:48;;;;;;;12.02;3.85;;;21.20;99.20;;;;;;5038898;28;20454;-90
2022/07/19 07:17:14;;;;;;;8.32;3.72;;;21.30;98.80;;;;;;5039026;28;20029;-90
2022/07/19 07:19:39;;;;;;;18.52;4.60;;;21.40;98.40;;;;;;5039118;28;20033;-91
2022/07/19 07:22:05;;;;;;;8.50;3.60;;;21.50;97.90;;;;;;5039367;28;20044;-93
2022/07/19 07:24:31;;;;;;;10.15;3.78;;;21.60;97.30;;;;;;5038405;28;20067;-92
2022/07/19 07:26:57;;;;;;;5.50;3.58;;;21.80;97.00;;;;;;5038605;28;20030;-90
2022/07/19 07:29:23;;;;;;;5.28;3.42;;;21.90;96.90;;;;;;5021138;28;20035;-90
2022/07/19 07:31:50;;;;;;;6.47;3.50;;;22.00;97.00;;;;;;5021835;28;20601;-92
2022/07/19 07:34:16;;;;;;;5.55;3.70;;;22.20;96.40;;;;;;5038152;28;20087;-93
2022/07/19 07:36:43;;;;;;;9.52;3.80;;;22.30;96.20;;;;;;5038939;28;20033;-93
2022/07/19 07:39:10;;;;;;;10.88;3.80;;;22.50;96.00;;;;;;5041824;28;20490;-93
2022/07/19 07:41:36;;;;;;;4.90;3.10;;;22.70;95.60;;;;;;5045695;28;20044;-92
2022/07/19 07:44:01;;;;;;;4.97;3.45;;;22.80;95.20;;;;;;5052654;28;20029;-94
2022/07/19 07:46:27;;;;;;;9.10;3.70;;;23.00;94.60;;;;;;5030266;28;20029;-93
2022/07/19 07:48:53;;;;;;;9.15;3.38;;;23.10;93.80;;;;;;5035754;28;20026;-94
2022/07/19 07:51:19;;;;;;;7.53;3.22;;;23.30;92.90;;;;;;5042527;28;20025;-93
2022/07/19 07:53:44;;;;;;;5.07;3.20;;;23.50;92.30;;;;;;5037934;28;20021;-95
2022/07/19 07:56:10;;;;;;;7.70;3.35;;;23.70;91.90;;;;;;5021196;28;20061;-95
2022/07/19 07:58:37;;;;;;;10.02;3.70;;;23.90;91.60;;;;;;5037701;28;20086;-94
2022/07/19 08:01:03;;;;;;;8.13;3.15;;;24.00;91.20;;;;;;5037941;28;20033;-93
2022/07/19 08:03:28;;;;;;;7.75;3.50;;;24.20;90.70;;;;;;5039349;28;20486;-93
2022/07/19 08:05:57;;;;;;;7.38;3.20;;;24.40;90.20;;;;;;5040504;28;20080;-94
2022/07/19 08:08:26;;;;;;;9.35;3.30;;;24.60;89.90;;;;;;5039324;28;20057;-93
2022/07/19 08:10:55;;;;;;;10.02;3.95;;;24.80;89.20;;;;;;5039743;28;20032;-93
2022/07/19 08:13:22;;;;;;;5.03;3.42;;;25.00;88.30;;;;;;5037196;28;20482;-93
2022/07/19 08:15:48;;;;;;;16.15;3.88;;;25.20;87.30;;;;;;5026757;28;20037;-91
2022/07/19 08:18:14;;;;;;;9.13;3.33;;;25.40;86.70;;;;;;5057699;28;20017;-93
2022/07/19 08:20:40;;;;;;;7.78;3.55;;;25.60;85.90;;;;;;5051730;28;20041;-92
2022/07/19 08:23:06;;;;;;;10.82;3.33;;;25.80;85.40;;;;;;5036544;28;20172;-94
2022/07/19 08:25:33;;;;;;;11.40;3.38;;;26.00;84.40;;;;;;5038069;28;20043;-95
2022/07/19 08:28:00;;;;;;;13.38;3.30;;;26.20;83.20;;;;;;5038170;28;20113;-93
2022/07/19 08:30:26;;;;;;;9.45;2.83;;;26.50;82.40;;;;;;5037048;28;20079;-94
2022/07/19 08:32:52;;;;;;;12.27;3.42;;;26.70;80.60;;;;;;5037715;28;20109;-95
2022/07/19 08:35:20;;;;;;;11.30;2.83;;;26.90;78.10;;;;;;5038021;28;20034;-95
2022/07/19 08:37:46;;;;;;;4.93;2.70;;;27.20;75.40;;;;;;5040083;28;20022;-94
2022/07/19 08:40:11;;;;;;;10.88;2.80;;;27.50;72.90;;;;;;5022111;28;20109;-95
2022/07/19 08:42:38;;;;;;;14.75;2.83;;;27.70;70.40;;;;;;5038234;28;20475;-96
2022/07/19 08:45:07;;;;;;;10.52;3.33;;;27.90;67.90;;;;;;5038120;28;20017;-94
2022/07/19 08:47:34;;;;;;;11.50;2.65;;;28.10;65.80;;;;;;5038094;28;20087;-94
2022/07/19 08:50:01;;;;;;;8.75;2.60;;;28.30;64.10;;;;;;5035866;28;20030;-94
2022/07/19 08:52:27;;;;;;;10.07;2.92;;;28.50;62.90;;;;;;5038369;28;20510;-93
2022/07/19 08:54:56;;;;;;;9.98;2.40;;;28.60;62.10;;;;;;5038152;28;20032;-93
2022/07/19 09:00:07;;;;;;;11.00;2.70;;;29.00;59.80;;;;;;5038694;28;20183;-93
2022/07/19 09:02:33;;;;;;;12.32;2.47;;;29.20;58.70;;;;;;5039086;28;20072;-92
2022/07/19 09:05:00;;;;;;;7.35;2.83;;;29.30;57.80;;;;;;5021609;28;20021;-94
2022/07/19 09:07:26;;;;;;;6.82;2.45;;;29.40;57.00;;;;;;5039855;28;20041;-91
2022/07/19 09:09:52;;;;;;;7.82;2.80;;;29.60;56.50;;;;;;5047107;28;20039;-94
2022/07/19 09:12:18;;;;;;;8.10;2.50;;;29.80;56.10;;;;;;5036437;28;20037;-93
2022/07/19 09:14:53;;;;;;;12.13;2.88;;;30.00;55.60;;;;;;5035436;28;20121;-93
2022/07/19 09:17:20;;;;;;;15.13;2.88;;;30.20;54.50;;;;;;5036001;28;20022;-93
2022/07/19 09:19:49;;;;;;;6.82;2.50;;;30.30;54.10;;;;;;5039436;28;20157;-90
2022/07/19 09:22:18;;;;;;;7.90;2.40;;;30.50;53.40;;;;;;5047241;28;20079;-95
2022/07/19 09:24:49;;;;;;;7.75;2.72;;;30.70;52.60;;;;;;5039047;28;20113;-93
2022/07/19 09:27:25;;;;;;;15.98;2.88;;;30.90;52.00;;;;;;5035753;28;20033;-94
2022/07/19 09:29:56;;;;;;;9.98;2.28;;;31.10;51.80;;;;;;5035740;28;20028;-92
2022/07/19 09:32:24;;;;;;;8.02;2.25;;;31.20;51.40;;;;;;5035916;28;20037;-94
2022/07/19 09:34:55;;;;;;;9.95;2.50;;;31.40;51.30;;;;;;5035088;28;20021;-93
2022/07/19 09:37:22;;;;;;;4.88;2.03;;;31.60;51.10;;;;;;5036654;28;20045;-92
2022/07/19 09:39:50;;;;;;;8.60;3.00;;;31.70;50.70;;;;;;5036278;28;20018;-94
2022/07/19 09:42:38;;;;;;;4.45;2.60;;;31.90;50.00;;;;;;5036399;28;20095;-92
2022/07/19 09:45:10;;;;;;;8.02;2.70;;;32.00;49.10;;;;;;5018949;28;20463;-92
2022/07/19 09:47:41;;;;;;;5.55;2.42;;;32.20;49.10;;;;;;5035582;28;20160;-94
2022/07/19 09:50:16;;;;;;;9.38;3.00;;;32.40;49.20;;;;;;5036833;28;20033;-92
2022/07/19 09:52:43;;;;;;;7.80;3.05;;;32.60;48.60;;;;;;5037603;28;20083;-93
2022/07/19 09:55:11;;;;;;;5.38;2.22;;;32.80;48.40;;;;;;5040647;28;20026;-93
2022/07/19 09:57:40;;;;;;;3.88;2.70;;;32.90;48.00;;;;;;5040488;28;20032;-91
2022/07/19 10:00:08;;;;;;;8.07;2.70;;;33.10;47.10;;;;;;5037785;28;20025;-91
2022/07/19 10:02:36;;;;;;;6.28;2.75;;;33.10;46.70;;;;;;5019357;28;20041;-93
2022/07/19 10:05:03;;;;;;;8.55;2.95;;;33.20;46.20;;;;;;5018432;28;20029;-92
2022/07/19 10:07:31;;;;;;;9.57;2.58;;;33.40;46.20;;;;;;5035943;28;20046;-95
2022/07/19 10:09:58;;;;;;;13.05;2.70;;;33.50;46.00;;;;;;5034889;28;20045;-92
2022/07/19 10:12:24;;;;;;;11.60;2.60;;;33.60;45.60;;;;;;5039701;28;20079;-94
2022/07/19 10:14:50;;;;;;;14.98;2.95;;;33.70;45.10;;;;;;5034840;28;20029;-94
2022/07/19 10:17:55;;;;;;;6.13;2.70;;;33.70;44.90;;;;;;5035295;28;20111;-92
2022/07/19 10:20:24;;;;;;;10.80;2.80;;;33.90;44.80;;;;;;5034390;28;20097;-91
2022/07/19 10:22:50;;;;;;;12.35;2.78;;;34.00;44.50;;;;;;5035488;28;20045;-93
2022/07/19 10:25:19;;;;;;;8.10;2.70;;;34.10;44.20;;;;;;5019071;28;20037;-94
2022/07/19 10:27:48;;;;;;;12.25;2.90;;;34.20;43.70;;;;;;5041593;28;20037;-93
2022/07/19 10:30:14;;;;;;;18.65;2.70;;;34.30;43.10;;;;;;5040251;28;20029;-91
2022/07/19 10:32:42;;;;;;;7.32;2.70;;;34.40;43.10;;;;;;5034195;28;20026;-92
2022/07/19 10:35:26;;;;;;;7.45;2.38;;;34.50;42.60;;;;;;5048462;28;20036;-93
2022/07/19 10:38:01;;;;;;;11.65;3.00;;;34.50;41.70;;;;;;5026971;28;20036;-93
2022/07/19 10:40:47;;;;;;;8.40;2.42;;;34.50;41.40;;;;;;5026744;28;20053;-91
2022/07/19 10:43:20;;;;;;;11.80;3.05;;;34.60;41.20;;;;;;5040344;28;20051;-90
2022/07/19 10:46:04;;;;;;;10.02;2.88;;;34.70;41.20;;;;;;5040570;28;20028;-94
2022/07/19 10:48:45;;;;;;;13.02;2.75;;;34.80;40.90;;;;;;5042449;28;20033;-93
2022/07/19 10:51:26;;;;;;;11.73;3.67;;;34.90;41.10;;;;;;5050280;28;20103;-95
2022/07/19 10:54:12;;;;;;;12.25;3.00;;;35.00;41.40;;;;;;5052417;28;20034;-93
2022/07/19 10:56:55;;;;;;;12.45;3.15;;;35.20;41.00;;;;;;5043378;28;20075;-94
2022/07/19 10:59:32;;;;;;;10.80;3.00;;;35.30;40.90;;;;;;5040573;28;20060;-93
2022/07/19 11:02:01;;;;;;;9.45;2.90;;;35.50;40.60;;;;;;5039399;28;20348;-93
2022/07/19 11:04:34;;;;;;;11.45;3.58;;;35.60;40.60;;;;;;5041494;28;20021;-95
2022/07/19 11:07:23;;;;;;;7.43;2.92;;;35.80;40.50;;;;;;5045580;28;20040;-93
2022/07/19 11:09:57;;;;;;;18.45;3.70;;;35.90;39.80;;;;;;5025290;28;20044;-95
2022/07/19 11:12:24;;;;;;;8.45;3.35;;;36.00;40.00;;;;;;5040175;28;20052;-93
2022/07/19 11:14:50;;;;;;;8.48;3.10;;;36.20;39.80;;;;;;5039422;28;20033;-94
2022/07/19 11:17:16;;;;;;;7.68;3.17;;;36.30;39.60;;;;;;5040257;28;20021;-92
2022/07/19 11:20:05;;;;;;;8.82;3.10;;;36.40;39.50;;;;;;5038560;28;20029;-95
2022/07/19 11:22:37;;;;;;;10.88;2.80;;;36.60;39.50;;;;;;5039804;28;20034;-94
2022/07/19 11:25:04;;;;;;;10.32;3.40;;;36.80;39.50;;;;;;5040560;28;20065;-94
2022/07/19 11:27:32;;;;;;;13.30;3.45;;;36.90;39.40;;;;;;5043326;28;20041;-93
2022/07/19 11:30:00;;;;;;;11.48;3.60;;;37.10;39.10;;;;;;5053489;28;20033;-93
2022/07/19 11:32:26;;;;;;;12.30;3.65;;;37.30;38.80;;;;;;5055273;28;20553;-95
2022/07/19 11:35:04;;;;;;;11.73;3.22;;;37.30;38.40;;;;;;5042260;28;20029;-94
2022/07/19 11:37:34;;;;;;;11.90;3.13;;;37.30;38.10;;;;;;5041829;28;20029;-95
2022/07/19 11:40:00;;;;;;;15.05;3.33;;;37.30;38.50;;;;;;5041084;28;20109;-94
2022/07/19 11:42:30;;;;;;;12.50;2.90;;;37.30;38.00;;;;;;5040801;28;20046;-95
2022/07/19 11:44:56;;;;;;;7.95;3.55;;;37.30;37.70;;;;;;5022111;28;20097;-96
2022/07/19 11:47:22;;;;;;;8.18;3.55;;;37.40;37.60;;;;;;5039739;28;20041;-91
2022/07/19 11:49:48;;;;;;;19.23;3.97;;;37.50;37.90;;;;;;5042410;28;20383;-92
2022/07/19 11:52:14;;;;;;;5.18;3.03;;;37.60;37.90;;;;;;5039961;28;20030;-94
2022/07/19 11:54:40;;;;;;;12.88;3.65;;;37.80;37.70;;;;;;5024656;28;20036;-94
2022/07/19 11:57:23;;;;;;;15.50;3.65;;;37.90;37.60;;;;;;5024387;28;20056;-95
2022/07/19 11:59:49;;;;;;;9.77;3.50;;;38.00;37.20;;;;;;5044148;28;20029;-93
2022/07/19 12:02:15;;;;;;;9.60;3.20;;;38.10;37.00;;;;;;5025626;28;20045;-93
2022/07/19 12:04:40;;;;;;;14.23;4.00;;;38.10;36.70;;;;;;5043854;28;20021;-92
2022/07/19 12:07:06;;;;;;;10.70;3.42;;;38.20;36.40;;;;;;5041483;28;20136;-93
2022/07/19 12:09:33;;;;;;;15.63;3.15;;;38.20;36.00;;;;;;5042044;28;20032;-94
2022/07/19 12:12:10;;;;;;;7.90;3.25;;;38.20;36.30;;;;;;5040701;28;20026;-92
2022/07/19 12:14:37;;;;;;;9.63;3.53;;;38.40;36.50;;;;;;5041568;28;20044;-93
2022/07/19 12:17:20;;;;;;;10.48;3.40;;;38.60;36.50;;;;;;5040369;28;20036;-95
2022/07/19 12:20:02;;;;;;;13.68;3.88;;;38.70;35.90;;;;;;5040472;28;20032;-95
2022/07/19 12:22:39;;;;;;;8.90;3.60;;;38.80;35.60;;;;;;5034369;28;20044;-94
2022/07/19 12:25:09;;;;;;;10.98;3.22;;;38.80;35.70;;;;;;5048998;28;20025;-95
2022/07/19 12:27:35;;;;;;;13.43;3.78;;;38.90;35.80;;;;;;5044344;28;20021;-93
2022/07/19 12:30:04;;;;;;;15.10;4.05;;;39.00;35.60;;;;;;5041282;28;20040;-94
2022/07/19 12:32:31;;;;;;;12.83;3.60;;;39.00;35.20;;;;;;5039525;28;20052;-94
2022/07/19 12:35:00;;;;;;;9.00;3.60;;;39.10;34.90;;;;;;5040584;28;20316;-93
2022/07/19 12:37:35;;;;;;;;;;;39.20;34.90;;;;;;5041482;28;20047;-95
2022/07/19 12:40:28;;;;;;;14.07;3.55;;;39.20;34.70;;;;;;5044382;28;19916;-94
2022/07/19 12:43:02;;;;;;;12.75;3.15;;;39.20;34.80;;;;;;5024812;28;20041;-96
2022/07/19 12:45:46;;;;;;;15.07;3.67;;;39.30;34.60;;;;;;5040944;28;20033;-95
2022/07/19 12:48:15;;;;;;;15.00;3.78;;;39.30;34.50;;;;;;5042337;28;20486;-95
2022/07/19 12:50:48;;;;;;;15.52;3.70;;;39.30;34.00;;;;;;5027430;28;20017;-95
2022/07/19 12:53:14;;;;;;;11.05;4.10;;;39.30;34.10;;;;;;5042944;28;20097;-94
2022/07/19 12:55:50;;;;;;;11.70;3.35;;;39.40;34.30;;;;;;5042887;28;20033;-95
2022/07/19 13:01:02;;;;;;;6.38;3.30;;;39.70;34.10;;;;;;5048092;28;20052;-94
2022/07/19 13:03:28;;;;;;;10.32;3.70;;;39.70;33.80;;;;;;5041674;28;20100;-93
2022/07/19 13:05:54;;;;;;;8.77;3.65;;;39.70;33.30;;;;;;5047558;28;20029;-93